Time;durP1;ratioP1;P1;durP2;ratioP2;P2;SDS_P1;SDS_P2;PMS_P1;PMS_P2;Temp;Humidity;BMP_temperature;BMP_pressure;BME280_temperature;BME280_humidity;BME280_pressure;Samples;Min_cycle;Max_cycle;Signal;HPM_P1;HPM_P2
2023/06/14 00:00:46;;;;;;;7.03;3.75;;;;;15.40;95989.00;;;;8251637;28;20238;-65
2023/06/14 00:04:51;;;;;;;4.82;3.95;;;;;15.30;95986.00;;;;8250427;28;20309;-66
2023/06/14 00:08:54;;;;;;;4.82;3.33;;;;;15.30;95986.00;;;;8252133;28;20259;-66
2023/06/14 00:12:59;;;;;;;6.07;3.90;;;;;15.20;95985.00;;;;8242383;28;20204;-66
2023/06/14 00:17:08;;;;;;;10.05;3.47;;;;;15.20;95983.00;;;;8249511;28;20263;-68
2023/06/14 00:21:18;;;;;;;7.28;3.63;;;;;15.10;95978.00;;;;8250184;28;20918;-66
2023/06/14 00:25:21;;;;;;;6.25;3.67;;;;;15.10;95981.00;;;;8252706;28;20312;-66
2023/06/14 00:29:31;;;;;;;4.97;3.30;;;;;15.10;95980.00;;;;8250133;28;20227;-66
2023/06/14 00:33:36;;;;;;;5.22;3.75;;;;;15.10;95982.00;;;;8247877;28;20200;-66
2023/06/14 00:37:40;;;;;;;6.43;3.58;;;;;15.10;95981.00;;;;8252740;28;20721;-66
2023/06/14 00:41:46;;;;;;;7.07;3.83;;;;;15.10;95970.00;;;;8257234;28;20906;-66
2023/06/14 00:45:51;;;;;;;8.57;3.88;;;;;15.10;95976.00;;;;8254511;28;20213;-66
2023/06/14 00:50:00;;;;;;;9.27;3.97;;;;;14.90;95981.00;;;;8256531;28;20295;-66
2023/06/14 00:54:04;;;;;;;6.38;3.83;;;;;14.80;95972.00;;;;8253479;28;20207;-66
2023/06/14 00:58:09;;;;;;;8.82;3.92;;;;;14.80;95972.00;;;;8249404;28;20316;-66
2023/06/14 01:02:17;;;;;;;4.63;3.50;;;;;14.70;95972.00;;;;8255613;28;20726;-66
2023/06/14 01:06:32;;;;;;;5.60;4.00;;;;;14.60;95966.00;;;;8247025;28;20300;-65
2023/06/14 01:10:42;;;;;;;5.20;3.72;;;;;14.50;95963.00;;;;8249096;28;20299;-65
2023/06/14 01:14:46;;;;;;;3.88;3.40;;;;;14.40;95967.00;;;;8250904;28;20279;-66
2023/06/14 01:18:50;;;;;;;6.43;3.83;;;;;14.30;95971.00;;;;8254977;28;20269;-66
2023/06/14 01:22:57;;;;;;;7.13;4.32;;;;;14.20;95975.00;;;;8252838;28;20200;-66
2023/06/14 01:27:02;;;;;;;5.97;4.35;;;;;14.10;95970.00;;;;8252699;28;21839;-66
2023/06/14 01:31:07;;;;;;;4.38;3.50;;;;;14.00;95961.00;;;;8255032;28;20568;-66
2023/06/14 01:35:12;;;;;;;6.47;3.63;;;;;13.90;95976.00;;;;8253473;28;20307;-66
2023/06/14 01:39:18;;;;;;;4.22;3.70;;;;;13.80;95971.00;;;;8254325;28;20231;-67
2023/06/14 01:43:22;;;;;;;4.80;3.65;;;;;13.70;95961.00;;;;8249582;28;20760;-66
2023/06/14 01:47:25;;;;;;;5.47;3.83;;;;;13.60;95963.00;;;;8255133;28;20221;-66
2023/06/14 01:51:29;;;;;;;5.65;3.80;;;;;13.50;95959.00;;;;8250789;28;20219;-66
2023/06/14 01:55:38;;;;;;;5.65;3.88;;;;;13.40;95960.00;;;;8252694;28;20203;-66
2023/06/14 01:59:41;;;;;;;6.75;3.90;;;;;13.40;95959.00;;;;8252072;28;20230;-66
2023/06/14 02:03:48;;;;;;;12.88;4.32;;;;;13.30;95964.00;;;;8252049;28;20216;-66
2023/06/14 02:07:51;;;;;;;13.65;4.18;;;;;13.20;95960.00;;;;8249911;28;20199;-69
2023/06/14 02:11:57;;;;;;;7.43;3.97;;;;;13.20;95965.00;;;;8248527;28;20234;-69
2023/06/14 02:16:01;;;;;;;9.55;3.85;;;;;13.10;95961.00;;;;8250280;28;20238;-68
2023/06/14 02:20:10;;;;;;;5.25;3.80;;;;;13.10;95966.00;;;;8248963;28;20211;-70
2023/06/14 02:24:15;;;;;;;10.40;4.00;;;;;13.00;95957.00;;;;8249565;28;20452;-70
2023/06/14 02:28:20;;;;;;;5.90;4.15;;;;;13.00;95970.00;;;;8253966;28;20373;-69
2023/06/14 02:32:23;;;;;;;8.05;4.22;;;;;13.00;95961.00;;;;8252492;28;20195;-70
2023/06/14 02:36:29;;;;;;;4.85;4.05;;;;;13.00;95977.00;;;;8253531;28;20710;-70
2023/06/14 02:40:32;;;;;;;5.85;3.95;;;;;13.00;95971.00;;;;8248533;28;20235;-70
2023/06/14 02:44:37;;;;;;;4.22;3.83;;;;;13.10;95965.00;;;;8251180;28;20222;-69
2023/06/14 02:48:43;;;;;;;10.85;4.53;;;;;13.10;95970.00;;;;8251916;28;20211;-69
2023/06/14 02:52:47;;;;;;;5.68;4.35;;;;;13.00;95967.00;;;;8254518;28;20197;-69
2023/06/14 02:56:52;;;;;;;5.28;3.75;;;;;13.00;95970.00;;;;8250887;28;20212;-69
2023/06/14 03:01:33;;;;;;;6.07;4.22;;;;;13.00;95979.00;;;;8266951;22;20644;-90
2023/06/14 03:05:45;;;;;;;8.85;3.95;;;;;13.00;95966.00;;;;8316444;28;20205;-94
2023/06/14 03:10:00;;;;;;;7.32;4.05;;;;;12.90;95967.00;;;;8317489;28;20206;-96
2023/06/14 03:14:11;;;;;;;9.27;4.57;;;;;12.90;95973.00;;;;8319184;28;20336;-95
2023/06/14 03:18:41;;;;;;;6.45;4.50;;;;;12.90;95974.00;;;;8318452;28;20225;-95
2023/06/14 03:22:47;;;;;;;5.00;4.20;;;;;12.90;95974.00;;;;8318928;28;20207;-94
2023/06/14 03:26:54;;;;;;;6.15;4.43;;;;;12.90;95983.00;;;;8320909;28;20217;-93
2023/06/14 03:30:58;;;;;;;6.03;4.80;;;;;13.00;95984.00;;;;8320964;28;20235;-93
2023/06/14 03:39:33;;;;;;;6.65;4.35;;;;;13.10;95991.00;;;;8317021;28;20240;-93
2023/06/14 03:43:38;;;;;;;8.23;4.22;;;;;13.10;95995.00;;;;8317876;28;20207;-95
2023/06/14 03:47:58;;;;;;;3.97;3.55;;;;;13.20;95993.00;;;;8318587;28;20583;-94
2023/06/14 03:52:07;;;;;;;4.82;3.97;;;;;13.30;95996.00;;;;8300984;28;20636;-94
2023/06/14 03:56:14;;;;;;;7.18;3.95;;;;;13.40;95994.00;;;;8318559;28;20198;-95
2023/06/14 04:00:25;;;;;;;5.10;4.47;;;;;13.50;96009.00;;;;8316923;28;20259;-94
2023/06/14 04:04:29;;;;;;;4.88;4.38;;;;;13.50;96003.00;;;;8315401;28;20202;-93
2023/06/14 04:08:39;;;;;;;10.98;4.75;;;;;13.60;96004.00;;;;8318497;28;20232;-92
2023/06/14 04:12:47;;;;;;;8.35;4.18;;;;;13.60;96010.00;;;;8322405;28;20220;-94
2023/06/14 04:17:16;;;;;;;6.25;4.40;;;;;13.60;96019.00;;;;8306154;28;20253;-94
2023/06/14 04:21:29;;;;;;;9.52;4.78;;;;;13.70;96013.00;;;;8320811;28;20218;-93
2023/06/14 04:25:36;;;;;;;5.95;4.53;;;;;13.80;96023.00;;;;8318559;28;20262;-93
2023/06/14 04:29:49;;;;;;;5.80;4.85;;;;;13.90;96023.00;;;;8324125;28;20199;-93
2023/06/14 04:33:56;;;;;;;7.57;4.57;;;;;14.10;96029.00;;;;8302248;28;20319;-93
2023/06/14 04:38:04;;;;;;;8.70;4.97;;;;;14.20;96023.00;;;;8322333;28;20209;-92
2023/06/14 04:42:15;;;;;;;8.20;4.35;;;;;14.30;96031.00;;;;8321284;28;20203;-94
2023/06/14 04:46:26;;;;;;;9.57;4.43;;;;;14.50;96027.00;;;;8320983;28;20207;-95
2023/06/14 04:50:32;;;;;;;5.38;4.45;;;;;14.60;96038.00;;;;8324311;28;20296;-94
2023/06/14 04:54:42;;;;;;;6.15;4.22;;;;;14.80;96039.00;;;;8324166;28;20237;-94
2023/06/14 05:03:23;;;;;;;7.95;4.65;;;;;15.00;96041.00;;;;8321961;28;20217;-94
2023/06/14 05:07:30;;;;;;;9.32;4.82;;;;;15.00;96042.00;;;;8322919;28;20206;-94
2023/06/14 05:11:35;;;;;;;11.00;5.18;;;;;15.10;96041.00;;;;8319175;28;20200;-95
2023/06/14 05:15:50;;;;;;;8.50;4.60;;;;;15.20;96044.00;;;;8322288;28;20212;-94
2023/06/14 05:19:57;;;;;;;5.22;4.25;;;;;15.20;96048.00;;;;8324143;28;20763;-94
2023/06/14 05:24:02;;;;;;;6.38;4.53;;;;;15.30;96043.00;;;;8323572;28;20219;-96
2023/06/14 05:28:07;;;;;;;7.82;5.03;;;;;15.50;96038.00;;;;8321232;28;20211;-92
2023/06/14 05:36:39;;;;;;;9.45;5.10;;;;;16.50;96062.00;;;;8315090;28;20205;-94
2023/06/14 05:40:51;;;;;;;8.05;4.70;;;;;16.90;96059.00;;;;8322690;28;20232;-95
2023/06/14 05:44:57;;;;;;;5.80;4.80;;;;;17.50;96062.00;;;;8306680;28;20239;-94
2023/06/14 05:49:11;;;;;;;6.93;4.85;;;;;17.70;96069.00;;;;8323105;28;20525;-94
2023/06/14 05:53:22;;;;;;;7.05;4.80;;;;;17.70;96072.00;;;;8320450;28;20194;-94
2023/06/14 05:57:37;;;;;;;7.10;4.50;;;;;18.00;96072.00;;;;8321384;28;20202;-94
2023/06/14 06:01:42;;;;;;;11.00;4.53;;;;;18.00;96078.00;;;;8304699;28;20218;-95
2023/06/14 06:05:53;;;;;;;7.50;4.53;;;;;18.10;96072.00;;;;8321125;28;20663;-94
2023/06/14 06:10:08;;;;;;;5.88;4.55;;;;;18.50;96078.00;;;;8320797;28;20198;-94
2023/06/14 06:14:14;;;;;;;8.23;5.00;;;;;17.90;96065.00;;;;8321630;28;20194;-95
2023/06/14 06:18:29;;;;;;;21.33;5.28;;;;;17.40;96081.00;;;;8319370;28;20190;-94
2023/06/14 06:22:41;;;;;;;8.63;5.07;;;;;17.50;96079.00;;;;8320303;28;20249;-95
2023/06/14 06:26:46;;;;;;;8.20;4.93;;;;;17.50;96092.00;;;;8318676;28;20209;-95
2023/06/14 06:30:56;;;;;;;11.35;5.03;;;;;17.60;96082.00;;;;8321430;28;20206;-95
2023/06/14 06:35:06;;;;;;;8.57;4.53;;;;;18.30;96098.00;;;;8319085;28;20186;-96
2023/06/14 06:39:17;;;;;;;6.15;4.43;;;;;18.00;96101.00;;;;8319791;28;20253;-94
2023/06/14 06:43:28;;;;;;;11.20;5.10;;;;;18.00;96109.00;;;;8319415;28;20230;-94
2023/06/14 06:52:08;;;;;;;6.55;4.70;;;;;19.50;96117.00;;;;8319626;28;20194;-95
2023/06/14 06:56:32;;;;;;;7.13;4.75;;;;;20.10;96112.00;;;;8321841;28;20195;-96
2023/06/14 07:00:42;;;;;;;16.65;4.70;;;;;20.50;96125.00;;;;8322115;28;20209;-95
2023/06/14 07:09:35;;;;;;;11.07;4.57;;;;;20.70;96130.00;;;;8322539;28;20211;-95
2023/06/14 07:13:52;;;;;;;12.48;4.97;;;;;21.20;96131.00;;;;8324967;28;20205;-96
2023/06/14 07:18:18;;;;;;;4.63;4.20;;;;;21.90;96133.00;;;;8320718;28;20206;-96
2023/06/14 07:31:40;;;;;;;8.05;4.88;;;;;21.40;96145.00;;;;8319819;28;20201;-96
2023/06/14 07:35:51;;;;;;;8.32;4.50;;;;;21.30;96154.00;;;;8313478;28;20247;-96
2023/06/14 07:39:58;;;;;;;7.45;4.65;;;;;21.90;96157.00;;;;8321092;28;20264;-96
2023/06/14 07:44:26;;;;;;;7.93;4.18;;;;;22.10;96154.00;;;;8320818;28;20201;-96
2023/06/14 07:53:47;;;;;;;5.55;4.53;;;;;22.90;96163.00;;;;8322299;28;20202;-96
2023/06/14 07:57:57;;;;;;;7.05;4.72;;;;;24.30;96155.00;;;;8321270;28;20212;-95
2023/06/14 08:11:14;;;;;;;6.35;4.00;;;;;24.90;96161.00;;;;8315255;28;20233;-95
2023/06/14 08:15:24;;;;;;;17.23;4.65;;;;;25.30;96167.00;;;;8317082;28;20248;-94
2023/06/14 08:19:33;;;;;;;5.20;3.60;;;;;26.00;96166.00;;;;8321805;28;20202;-96
2023/06/14 08:24:19;;;;;;;10.85;4.10;;;;;27.50;96165.00;;;;8323418;28;20210;-96
2023/06/14 08:39:08;;;;;;;5.05;3.70;;;;;27.10;96183.00;;;;8321441;28;20195;-96
2023/06/14 08:43:20;;;;;;;6.45;3.53;;;;;26.90;96178.00;;;;8319126;28;20676;-96
2023/06/14 08:52:23;;;;;;;4.57;3.90;;;;;26.00;96190.00;;;;8320336;28;20190;-96
2023/06/14 09:01:38;;;;;;;7.30;3.88;;;;;25.40;96194.00;;;;8325737;28;20285;-96
2023/06/14 09:06:03;;;;;;;4.95;3.92;;;;;26.70;96193.00;;;;8326499;28;20198;-96
2023/06/14 09:14:47;;;;;;;4.82;3.40;;;;;28.40;96200.00;;;;8324201;28;20257;-96
2023/06/14 09:19:05;;;;;;;4.05;3.40;;;;;28.70;96209.00;;;;8324665;28;20236;-96
2023/06/14 09:23:24;;;;;;;3.90;3.45;;;;;30.00;96200.00;;;;8324668;28;20619;-96
2023/06/14 09:37:34;;;;;;;9.13;3.55;;;;;32.70;96199.00;;;;8329609;28;20228;-96
2023/06/14 09:42:09;;;;;;;7.15;3.50;;;;;32.60;96201.00;;;;8322028;28;20249;-96
2023/06/14 10:01:16;;;;;;;7.18;3.60;;;;;32.80;96195.00;;;;8326518;28;20228;-96
2023/06/14 10:10:56;;;;;;;4.80;3.60;;;;;28.20;96204.00;;;;8331363;28;20242;-96
2023/06/14 10:15:47;;;;;;;5.55;3.40;;;;;27.50;96205.00;;;;8324477;28;20198;-95
2023/06/14 10:20:28;;;;;;;7.45;4.00;;;;;26.50;96205.00;;;;8322755;28;20198;-96
2023/06/14 10:24:42;;;;;;;5.63;3.92;;;;;25.60;96210.00;;;;8321292;28;20191;-94
2023/06/14 10:29:21;;;;;;;5.75;3.47;;;;;25.20;96214.00;;;;8320161;28;20193;-95
2023/06/14 10:33:52;;;;;;;7.18;3.75;;;;;25.10;96202.00;;;;8320535;28;20252;-96
2023/06/14 10:38:20;;;;;;;7.28;3.58;;;;;25.10;96208.00;;;;8316807;28;20206;-96
2023/06/14 10:42:40;;;;;;;5.07;3.92;;;;;25.20;96202.00;;;;8320173;28;20221;-95
2023/06/14 10:46:52;;;;;;;8.13;3.30;;;;;25.20;96200.00;;;;8321372;28;20254;-96
2023/06/14 10:55:40;;;;;;;6.15;3.78;;;;;25.40;96201.00;;;;8321260;28;20201;-95
2023/06/14 10:59:51;;;;;;;6.75;3.92;;;;;25.90;96197.00;;;;8321122;28;20251;-95
2023/06/14 11:14:00;;;;;;;3.97;3.55;;;;;26.10;96190.00;;;;8320773;28;20353;-94
2023/06/14 11:18:27;;;;;;;6.78;3.83;;;;;26.20;96186.00;;;;8321438;28;20272;-95
2023/06/14 11:27:18;;;;;;;5.13;3.88;;;;;26.60;96188.00;;;;8322083;28;20284;-94
2023/06/14 11:40:47;;;;;;;8.98;3.85;;;;;27.70;96195.00;;;;8320587;28;20222;-95
2023/06/14 11:49:38;;;;;;;6.22;4.35;;;;;27.30;96190.00;;;;8321904;28;20198;-94
2023/06/14 11:58:15;;;;;;;15.52;4.13;;;;;27.60;96189.00;;;;8318937;28;20500;-95
2023/06/14 12:02:35;;;;;;;6.95;4.05;;;;;27.80;96182.00;;;;8323211;28;20241;-94
2023/06/14 12:06:53;;;;;;;4.35;3.30;;;;;28.40;96181.00;;;;8318882;28;20214;-94
2023/06/14 12:11:06;;;;;;;5.38;3.90;;;;;29.90;96172.00;;;;8320589;28;20201;-95
2023/06/14 12:33:11;;;;;;;3.88;3.47;;;;;31.50;96169.00;;;;8330105;28;20209;-94
2023/06/14 12:42:33;;;;;;;4.57;3.47;;;;;30.80;96175.00;;;;8333782;28;20689;-95
2023/06/14 12:51:28;;;;;;;3.85;3.40;;;;;30.80;96179.00;;;;8335780;28;20194;-96
2023/06/14 12:56:20;;;;;;;6.05;3.35;;;;;30.90;96172.00;;;;8333121;28;20213;-95
2023/06/14 13:05:31;;;;;;;5.40;3.45;;;;;32.20;96176.00;;;;8330632;28;20705;-96
2023/06/14 13:09:48;;;;;;;9.98;3.35;;;;;32.90;96173.00;;;;8325647;28;20647;-96
2023/06/14 13:18:39;;;;;;;5.78;3.50;;;;;33.00;96171.00;;;;8328228;28;20201;-95
2023/06/14 13:23:10;;;;;;;4.65;3.30;;;;;32.10;96167.00;;;;8327002;28;20230;-96
2023/06/14 13:42:10;;;;;;;3.50;3.20;;;;;29.10;96177.00;;;;8376032;27;20621;-66
2023/06/14 13:46:13;;;;;;;4.68;3.50;;;;;29.10;96178.00;;;;8374279;28;20873;-66
2023/06/14 13:50:17;;;;;;;4.40;3.30;;;;;29.50;96170.00;;;;8378910;28;20196;-65
2023/06/14 13:54:22;;;;;;;3.72;3.28;;;;;29.70;96171.00;;;;8371501;28;20238;-65
2023/06/14 13:58:26;;;;;;;4.10;3.00;;;;;29.40;96166.00;;;;8369659;28;20558;-67
2023/06/14 14:02:30;;;;;;;4.63;3.38;;;;;29.20;96168.00;;;;8355251;28;20591;-68
2023/06/14 14:06:38;;;;;;;5.32;3.35;;;;;29.10;96170.00;;;;8361004;28;21405;-69
2023/06/14 14:10:41;;;;;;;4.20;3.60;;;;;28.90;96170.00;;;;8359716;28;20208;-69
2023/06/14 14:14:46;;;;;;;6.85;3.70;;;;;28.50;96161.00;;;;8360647;28;20204;-69
2023/06/14 14:18:49;;;;;;;5.30;3.42;;;;;28.10;96178.00;;;;8362391;28;20253;-69
2023/06/14 14:22:52;;;;;;;4.55;3.58;;;;;28.50;96165.00;;;;8352193;28;20641;-69
2023/06/14 14:26:59;;;;;;;5.68;3.45;;;;;29.90;96157.00;;;;8357110;28;20202;-68
2023/06/14 14:31:04;;;;;;;5.20;3.20;;;;;31.40;96162.00;;;;8355932;28;20245;-68
2023/06/14 14:35:08;;;;;;;3.53;3.22;;;;;31.70;96161.00;;;;8356476;28;20581;-69
2023/06/14 14:39:14;;;;;;;4.22;3.30;;;;;31.00;96162.00;;;;8359679;28;20335;-69
2023/06/14 14:43:17;;;;;;;4.55;3.20;;;;;30.90;96158.00;;;;8364758;28;20204;-69
2023/06/14 14:47:22;;;;;;;4.93;3.53;;;;;30.60;96163.00;;;;8356357;28;20197;-65
2023/06/14 14:51:25;;;;;;;3.92;3.50;;;;;30.10;96169.00;;;;8341439;28;20193;-65
2023/06/14 14:55:30;;;;;;;5.63;3.28;;;;;29.40;96165.00;;;;8344163;28;20300;-64
2023/06/14 14:59:35;;;;;;;3.88;3.40;;;;;28.90;96170.00;;;;8340323;28;20877;-65
2023/06/14 15:03:44;;;;;;;7.90;3.30;;;;;29.00;96171.00;;;;8338971;28;20316;-64
2023/06/14 15:08:01;;;;;;;9.65;3.53;;;;;28.60;96172.00;;;;8341722;28;20278;-65
2023/06/14 15:12:07;;;;;;;3.75;3.35;;;;;28.40;96171.00;;;;8335582;28;20201;-65
2023/06/14 15:16:10;;;;;;;10.73;3.67;;;;;28.10;96167.00;;;;8337841;28;20216;-65
2023/06/14 15:20:14;;;;;;;3.70;3.40;;;;;27.90;96166.00;;;;8337492;28;20227;-65
2023/06/14 15:24:18;;;;;;;8.80;3.45;;;;;27.60;96182.00;;;;8337301;28;20194;-65
2023/06/14 15:28:42;;;;;;;3.90;3.47;;;;;28.00;96167.00;;;;8336012;28;20188;-65
2023/06/14 15:32:50;;;;;;;10.80;3.58;;;;;29.10;96167.00;;;;8346895;28;20203;-65
2023/06/14 15:36:56;;;;;;;4.57;3.30;;;;;29.30;96170.00;;;;8336950;28;20221;-65
2023/06/14 15:40:59;;;;;;;3.72;2.97;;;;;29.00;96168.00;;;;8335771;28;20260;-65
2023/06/14 15:45:03;;;;;;;4.65;3.33;;;;;29.20;96165.00;;;;8331539;28;20221;-65
2023/06/14 15:49:15;;;;;;;6.03;3.47;;;;;28.80;96166.00;;;;8329150;28;20375;-65
2023/06/14 15:53:20;;;;;;;3.60;3.30;;;;;28.60;96162.00;;;;8324974;28;20396;-65
2023/06/14 15:57:23;;;;;;;7.20;3.25;;;;;29.20;96164.00;;;;8339511;28;20196;-65
2023/06/14 16:01:29;;;;;;;3.22;2.97;;;;;29.90;96159.00;;;;8338306;28;20319;-65
2023/06/14 16:05:32;;;;;;;8.00;3.70;;;;;30.40;96160.00;;;;8332462;28;20196;-65
2023/06/14 16:09:37;;;;;;;5.78;3.75;;;;;30.00;96164.00;;;;8340560;28;20202;-65
2023/06/14 16:13:44;;;;;;;4.07;3.38;;;;;29.60;96163.00;;;;8332945;28;20208;-65
2023/06/14 16:17:47;;;;;;;5.47;3.45;;;;;29.40;96153.00;;;;8333145;28;20205;-65
2023/06/14 16:21:52;;;;;;;5.47;3.90;;;;;29.90;96157.00;;;;8332384;28;20228;-65
2023/06/14 16:26:04;;;;;;;5.15;3.00;;;;;30.40;96159.00;;;;8330890;28;20243;-66
2023/06/14 16:30:12;;;;;;;3.95;3.60;;;;;30.70;96168.00;;;;8330665;28;20198;-66
2023/06/14 16:34:16;;;;;;;6.43;3.40;;;;;30.70;96168.00;;;;8330545;28;20207;-66
2023/06/14 16:38:21;;;;;;;6.10;3.35;;;;;30.60;96180.00;;;;8313828;28;20289;-67
2023/06/14 16:42:29;;;;;;;4.78;3.50;;;;;31.00;96178.00;;;;8336792;28;20228;-66
2023/06/14 16:46:33;;;;;;;6.07;3.65;;;;;31.50;96179.00;;;;8328835;28;20292;-68
2023/06/14 16:50:39;;;;;;;4.10;3.42;;;;;31.70;96184.00;;;;8326340;28;20668;-66
2023/06/14 16:54:47;;;;;;;5.22;2.97;;;;;31.00;96188.00;;;;8325609;28;20198;-67
2023/06/14 16:58:51;;;;;;;3.00;2.67;;;;;30.10;96195.00;;;;8333999;28;20604;-67
2023/06/14 17:02:54;;;;;;;6.88;3.20;;;;;28.80;96203.00;;;;8321010;28;20335;-67
2023/06/14 17:06:58;;;;;;;6.50;3.00;;;;;27.60;96201.00;;;;8330934;28;20197;-67
2023/06/14 17:11:01;;;;;;;3.45;3.15;;;;;26.50;96208.00;;;;8324979;28;20233;-66
2023/06/14 17:15:07;;;;;;;3.20;2.55;;;;;25.90;96210.00;;;;8321216;28;20211;-66
2023/06/14 17:19:10;;;;;;;3.30;2.72;;;;;25.50;96218.00;;;;8338055;28;20292;-66
2023/06/14 17:23:16;;;;;;;4.00;2.83;;;;;25.30;96214.00;;;;8336892;28;20228;-69
2023/06/14 17:27:21;;;;;;;2.95;2.75;;;;;25.20;96214.00;;;;8336277;28;20248;-66
2023/06/14 17:31:27;;;;;;;4.47;2.88;;;;;25.20;96219.00;;;;8330807;28;20708;-66
2023/06/14 17:35:33;;;;;;;4.25;3.10;;;;;25.30;96217.00;;;;8332302;28;20200;-66
2023/06/14 17:39:41;;;;;;;3.80;3.30;;;;;25.20;96222.00;;;;8327468;28;20212;-66
2023/06/14 17:43:44;;;;;;;3.25;2.97;;;;;25.10;96214.00;;;;8325446;28;20236;-69
2023/06/14 17:47:51;;;;;;;3.00;2.80;;;;;25.40;96219.00;;;;8333178;28;20217;-66
2023/06/14 17:51:55;;;;;;;4.97;3.15;;;;;25.40;96234.00;;;;8333034;28;20197;-66
2023/06/14 17:56:01;;;;;;;7.60;3.40;;;;;25.20;96238.00;;;;8330472;28;20221;-66
2023/06/14 18:00:07;;;;;;;2.90;2.70;;;;;25.00;96238.00;;;;8327110;28;21013;-66
2023/06/14 18:04:12;;;;;;;3.20;2.92;;;;;24.80;96235.00;;;;8326554;28;20219;-66
2023/06/14 18:08:15;;;;;;;4.30;2.95;;;;;24.70;96236.00;;;;8331787;28;20212;-66
2023/06/14 18:12:18;;;;;;;4.22;3.00;;;;;24.60;96238.00;;;;8325155;28;20232;-66
2023/06/14 18:16:27;;;;;;;3.50;3.20;;;;;24.40;96240.00;;;;8331838;28;20197;-66
2023/06/14 18:20:34;;;;;;;5.78;3.08;;;;;24.30;96244.00;;;;8319249;28;20291;-66
2023/06/14 18:24:40;;;;;;;8.00;3.00;;;;;24.00;96257.00;;;;8326686;28;20212;-67
2023/06/14 18:28:43;;;;;;;5.72;3.10;;;;;23.80;96250.00;;;;8344211;28;20200;-66
2023/06/14 18:32:46;;;;;;;3.55;2.90;;;;;23.50;96248.00;;;;8338118;28;20284;-66
2023/06/14 18:36:53;;;;;;;4.57;3.15;;;;;23.20;96253.00;;;;8346415;28;20197;-69
2023/06/14 18:40:56;;;;;;;3.42;3.10;;;;;23.00;96256.00;;;;8348396;28;20885;-69
2023/06/14 18:45:02;;;;;;;6.50;3.00;;;;;22.80;96256.00;;;;8347608;28;20287;-69
2023/06/14 18:49:07;;;;;;;3.38;2.50;;;;;22.60;96268.00;;;;8336942;28;20525;-69
2023/06/14 18:53:12;;;;;;;4.22;3.05;;;;;22.30;96264.00;;;;8334935;28;20551;-68
2023/06/14 18:57:20;;;;;;;3.33;2.85;;;;;22.10;96272.00;;;;8336418;28;20208;-67
2023/06/14 19:01:23;;;;;;;3.40;3.13;;;;;21.80;96274.00;;;;8335603;28;20224;-66
2023/06/14 19:05:31;;;;;;;6.15;3.33;;;;;21.50;96289.00;;;;8337991;28;20288;-67
2023/06/14 19:09:37;;;;;;;3.42;3.13;;;;;21.30;96282.00;;;;8342694;28;20863;-67
2023/06/14 19:13:42;;;;;;;3.65;2.92;;;;;21.10;96288.00;;;;8340816;28;20886;-67
2023/06/14 19:17:55;;;;;;;3.90;3.17;;;;;20.80;96294.00;;;;8342345;28;20930;-67
2023/06/14 19:22:00;;;;;;;4.80;3.03;;;;;20.60;96300.00;;;;8338312;28;20722;-67
2023/06/14 19:26:06;;;;;;;5.50;2.65;;;;;20.40;96297.00;;;;8338786;28;20240;-67
2023/06/14 19:30:10;;;;;;;8.00;3.03;;;;;20.20;96300.00;;;;8334659;28;20879;-66
2023/06/14 19:34:13;;;;;;;5.00;3.63;;;;;20.00;96306.00;;;;8336472;28;20200;-66
2023/06/14 19:38:18;;;;;;;6.65;3.40;;;;;19.90;96311.00;;;;8332764;28;20254;-67
2023/06/14 19:42:23;;;;;;;4.05;3.42;;;;;19.70;96318.00;;;;8332301;28;20244;-67
2023/06/14 19:46:26;;;;;;;3.97;3.60;;;;;19.60;96322.00;;;;8329395;28;21000;-65
2023/06/14 19:50:30;;;;;;;5.10;3.45;;;;;19.40;96330.00;;;;8338948;28;20204;-64
2023/06/14 19:54:34;;;;;;;3.53;3.20;;;;;19.30;96334.00;;;;8343882;28;20366;-64
2023/06/14 19:58:42;;;;;;;5.30;3.60;;;;;19.20;96341.00;;;;8342381;28;20205;-65
2023/06/14 20:02:49;;;;;;;4.93;3.22;;;;;19.10;96338.00;;;;8341197;28;20233;-66
2023/06/14 20:06:57;;;;;;;3.58;3.25;;;;;18.90;96348.00;;;;8338030;28;20197;-66
2023/06/14 20:11:03;;;;;;;4.32;3.92;;;;;18.80;96343.00;;;;8331579;28;20213;-67
2023/06/14 20:15:10;;;;;;;5.93;3.83;;;;;18.60;96346.00;;;;8332323;28;20327;-66
2023/06/14 20:19:14;;;;;;;6.03;3.67;;;;;18.60;96346.00;;;;8328532;28;20281;-67
2023/06/14 20:23:18;;;;;;;3.92;3.10;;;;;18.40;96348.00;;;;8334534;28;20320;-67
2023/06/14 20:27:21;;;;;;;5.88;3.63;;;;;18.30;96352.00;;;;8330429;28;20239;-64
2023/06/14 20:31:27;;;;;;;4.13;3.60;;;;;18.20;96353.00;;;;8330746;28;20297;-72
2023/06/14 20:35:30;;;;;;;7.53;3.45;;;;;18.00;96358.00;;;;8330778;28;20263;-71
2023/06/14 20:39:35;;;;;;;5.07;3.50;;;;;17.90;96356.00;;;;8311094;28;20223;-70
2023/06/14 20:43:38;;;;;;;6.80;3.80;;;;;17.70;96357.00;;;;8327130;28;20232;-70
2023/06/14 20:47:46;;;;;;;4.55;3.60;;;;;17.60;96349.00;;;;8336905;28;20204;-69
2023/06/14 20:51:52;;;;;;;6.30;3.30;;;;;17.50;96359.00;;;;8333093;28;20619;-70
2023/06/14 20:55:59;;;;;;;6.38;3.70;;;;;17.50;96358.00;;;;8332381;28;20193;-69
2023/06/14 21:00:10;;;;;;;7.97;4.10;;;;;17.40;96358.00;;;;8336313;28;20203;-69
2023/06/14 21:04:18;;;;;;;5.03;3.75;;;;;17.30;96351.00;;;;8335002;28;20260;-69
2023/06/14 21:08:23;;;;;;;5.65;3.60;;;;;17.30;96355.00;;;;8339159;28;20232;-69
2023/06/14 21:12:28;;;;;;;4.50;3.83;;;;;17.30;96357.00;;;;8340077;28;20300;-72
2023/06/14 21:16:32;;;;;;;5.40;3.50;;;;;17.20;96352.00;;;;8344501;28;20208;-71
2023/06/14 21:20:36;;;;;;;3.88;3.47;;;;;17.00;96351.00;;;;8342648;28;20201;-71
2023/06/14 21:24:41;;;;;;;5.65;3.65;;;;;16.90;96356.00;;;;8335798;28;20225;-71
2023/06/14 21:28:44;;;;;;;4.10;3.67;;;;;16.90;96351.00;;;;8337717;28;20654;-68
2023/06/14 21:32:49;;;;;;;6.28;3.72;;;;;16.90;96346.00;;;;8339948;28;20194;-69
2023/06/14 21:36:55;;;;;;;3.60;3.30;;;;;17.00;96349.00;;;;8332746;28;20205;-71
2023/06/14 21:40:58;;;;;;;4.07;3.72;;;;;17.00;96348.00;;;;8343771;28;20676;-69
2023/06/14 21:45:08;;;;;;;4.65;4.03;;;;;17.00;96356.00;;;;8330413;28;20201;-69
2023/06/14 21:49:12;;;;;;;4.80;4.07;;;;;17.00;96360.00;;;;8344820;28;20201;-67
2023/06/14 21:53:16;;;;;;;5.13;3.80;;;;;17.00;96361.00;;;;8336294;28;20197;-68
2023/06/14 21:57:20;;;;;;;4.65;3.97;;;;;16.90;96366.00;;;;8340724;28;20665;-69
2023/06/14 22:01:24;;;;;;;5.63;4.05;;;;;16.80;96372.00;;;;8342764;28;20284;-69
2023/06/14 22:05:27;;;;;;;7.85;4.82;;;;;16.70;96374.00;;;;8350468;28;20645;-69
2023/06/14 22:09:35;;;;;;;7.53;3.97;;;;;16.60;96372.00;;;;8345707;28;20204;-69
2023/06/14 22:13:38;;;;;;;5.68;4.10;;;;;16.50;96370.00;;;;8341156;28;20206;-68
2023/06/14 22:17:42;;;;;;;5.65;4.18;;;;;16.50;96378.00;;;;8352146;28;20231;-69
2023/06/14 22:21:50;;;;;;;5.28;4.07;;;;;16.40;96378.00;;;;8350093;28;20231;-70
2023/06/14 22:25:59;;;;;;;4.80;4.00;;;;;16.40;96382.00;;;;8345932;28;20229;-70
2023/06/14 22:30:05;;;;;;;6.45;4.45;;;;;16.20;96379.00;;;;8351675;28;20279;-68
2023/06/14 22:34:09;;;;;;;6.07;5.07;;;;;16.20;96378.00;;;;8345337;28;20215;-70
2023/06/14 22:38:19;;;;;;;7.05;4.72;;;;;16.10;96369.00;;;;8343482;28;20235;-70
2023/06/14 22:42:27;;;;;;;4.72;4.32;;;;;16.10;96370.00;;;;8351321;28;20238;-70
2023/06/14 22:46:34;;;;;;;4.90;4.40;;;;;16.10;96369.00;;;;8349240;28;20239;-70
2023/06/14 22:50:37;;;;;;;5.93;4.18;;;;;16.00;96373.00;;;;8342194;28;20295;-70
2023/06/14 22:54:44;;;;;;;12.07;5.22;;;;;16.00;96378.00;;;;8343782;28;20295;-71
2023/06/14 22:58:49;;;;;;;6.65;4.65;;;;;15.90;96371.00;;;;8348829;28;20210;-71
2023/06/14 23:02:52;;;;;;;6.38;4.28;;;;;15.90;96367.00;;;;8345217;28;20692;-71
2023/06/14 23:06:55;;;;;;;8.20;4.80;;;;;15.80;96370.00;;;;8349543;28;20239;-68
2023/06/14 23:11:01;;;;;;;5.53;4.85;;;;;15.60;96371.00;;;;8344464;28;20205;-69
2023/06/14 23:15:08;;;;;;;6.20;5.00;;;;;15.40;96373.00;;;;8347032;28;20200;-69
2023/06/14 23:19:17;;;;;;;9.73;5.63;;;;;15.10;96378.00;;;;8348371;28;20235;-69
2023/06/14 23:23:21;;;;;;;6.70;4.88;;;;;14.90;96374.00;;;;8345014;28;20237;-69
2023/06/14 23:27:27;;;;;;;6.68;5.20;;;;;14.80;96372.00;;;;8344009;28;20922;-69
2023/06/14 23:31:35;;;;;;;6.47;5.13;;;;;14.60;96370.00;;;;8336570;28;20658;-68
2023/06/14 23:35:40;;;;;;;7.15;5.15;;;;;14.30;96362.00;;;;8333826;28;20209;-68
2023/06/14 23:39:48;;;;;;;7.78;5.90;;;;;14.00;96360.00;;;;8344427;28;20212;-69
2023/06/14 23:43:51;;;;;;;7.18;5.47;;;;;13.70;96364.00;;;;8346421;28;20233;-68
2023/06/14 23:47:56;;;;;;;9.95;5.85;;;;;13.60;96356.00;;;;8348877;28;20299;-68
2023/06/14 23:52:07;;;;;;;12.00;6.18;;;;;13.30;96359.00;;;;8347930;28;20208;-69